Time;durP1;ratioP1;P1;durP2;ratioP2;P2;SDS_P1;SDS_P2;PMS_P1;PMS_P2;Temp;Humidity;BMP_temperature;BMP_pressure;BME280_temperature;BME280_humidity;BME280_pressure;Samples;Min_cycle;Max_cycle;Signal;HPM_P1;HPM_P2
2020/12/01 00:02:14;;;;;;;19.87;12.37;;;4.90;99.90;;;;;;5017021;28;20178;-78
2020/12/01 00:04:40;;;;;;;18.90;12.53;;;4.90;99.90;;;;;;5118067;23;20264;-79
2020/12/01 00:07:08;;;;;;;20.33;12.93;;;4.90;99.90;;;;;;5036646;28;20541;-79
2020/12/01 00:09:33;;;;;;;20.53;12.30;;;4.90;99.90;;;;;;5037135;28;20182;-79
2020/12/01 00:11:59;;;;;;;19.47;12.60;;;4.90;99.90;;;;;;5036606;28;20181;-79
2020/12/01 00:14:24;;;;;;;19.03;12.20;;;4.90;99.90;;;;;;5037160;28;20197;-79
2020/12/01 00:16:50;;;;;;;17.87;11.83;;;4.90;99.90;;;;;;5036851;28;20296;-79
2020/12/01 00:19:15;;;;;;;20.37;12.60;;;4.90;99.90;;;;;;5036979;28;20303;-79
2020/12/01 00:21:44;;;;;;;19.73;12.57;;;4.90;99.90;;;;;;5036937;28;20253;-79
2020/12/01 00:24:10;;;;;;;15.17;11.00;;;4.90;99.90;;;;;;5037042;28;20200;-79
2020/12/01 00:26:35;;;;;;;17.20;11.67;;;5.00;99.90;;;;;;5020244;28;20264;-79
2020/12/01 00:29:01;;;;;;;19.57;12.23;;;4.90;99.90;;;;;;5036761;28;20186;-79
2020/12/01 00:31:26;;;;;;;18.57;12.30;;;5.00;99.90;;;;;;5053399;28;20236;-79
2020/12/01 00:33:52;;;;;;;17.17;11.57;;;4.90;99.90;;;;;;5020328;28;20205;-79
2020/12/01 00:36:17;;;;;;;19.20;12.67;;;5.00;99.90;;;;;;5036554;28;20240;-79
2020/12/01 00:38:43;;;;;;;16.60;11.10;;;5.00;99.90;;;;;;5036381;28;20212;-79
2020/12/01 00:41:12;;;;;;;21.00;12.90;;;5.00;99.90;;;;;;5036622;28;20189;-79
2020/12/01 00:43:37;;;;;;;16.63;11.50;;;5.00;99.90;;;;;;5036672;28;20205;-79
2020/12/01 00:46:03;;;;;;;19.30;12.10;;;5.00;99.90;;;;;;5036694;28;20535;-79
2020/12/01 00:48:28;;;;;;;18.43;12.43;;;5.00;99.90;;;;;;5036397;28;20668;-79
2020/12/01 00:50:54;;;;;;;18.80;12.00;;;5.00;99.90;;;;;;5036234;28;20214;-79
2020/12/01 00:53:20;;;;;;;17.00;10.43;;;5.00;99.90;;;;;;5036259;28;20212;-79
2020/12/01 00:55:45;;;;;;;18.90;12.43;;;5.00;99.90;;;;;;5036435;28;20174;-79
2020/12/01 00:58:11;;;;;;;17.67;12.57;;;5.00;99.90;;;;;;5036480;28;20580;-79
2020/12/01 01:00:36;;;;;;;18.53;13.20;;;5.10;99.90;;;;;;5019631;28;20657;-79
2020/12/01 01:03:02;;;;;;;18.37;12.97;;;5.00;99.90;;;;;;5036141;28;20173;-79
2020/12/01 01:05:27;;;;;;;19.83;12.20;;;5.00;99.90;;;;;;5035901;28;20218;-79
2020/12/01 01:07:53;;;;;;;20.43;13.57;;;5.10;99.90;;;;;;5035945;28;20184;-79
2020/12/01 01:10:27;;;;;;;19.33;12.97;;;5.10;99.90;;;;;;5035870;28;20201;-79
2020/12/01 01:12:52;;;;;;;17.73;11.57;;;5.10;99.90;;;;;;5020279;28;20541;-79
2020/12/01 01:15:18;;;;;;;18.93;13.63;;;5.10;99.90;;;;;;5035856;28;20205;-79
2020/12/01 01:17:43;;;;;;;20.83;14.73;;;5.10;99.90;;;;;;5035752;28;20206;-79
2020/12/01 01:20:09;;;;;;;20.90;12.93;;;5.10;99.90;;;;;;5019662;28;20171;-79
2020/12/01 01:22:35;;;;;;;21.03;13.80;;;5.10;99.90;;;;;;5019027;28;20182;-79
2020/12/01 01:25:00;;;;;;;20.13;13.67;;;5.10;99.90;;;;;;5019383;28;20207;-80
2020/12/01 01:27:26;;;;;;;23.80;15.60;;;5.10;99.90;;;;;;5019426;28;20185;-79
2020/12/01 01:29:51;;;;;;;22.97;14.57;;;5.10;99.90;;;;;;5019002;28;20174;-80
2020/12/01 01:32:17;;;;;;;19.80;14.47;;;5.10;99.90;;;;;;5035334;28;20236;-80
2020/12/01 01:34:43;;;;;;;19.53;13.37;;;5.10;99.90;;;;;;5019199;28;20668;-79
2020/12/01 01:37:08;;;;;;;19.00;14.23;;;5.10;99.90;;;;;;5035305;28;20585;-79
2020/12/01 01:39:34;;;;;;;20.23;13.33;;;5.20;99.90;;;;;;5018961;28;20212;-80
2020/12/01 01:41:59;;;;;;;20.67;14.40;;;5.10;99.90;;;;;;5018962;28;20181;-79
2020/12/01 01:44:28;;;;;;;20.30;14.17;;;5.10;99.90;;;;;;5018782;28;20232;-79
2020/12/01 01:47:02;;;;;;;19.87;13.27;;;5.20;99.90;;;;;;5019134;28;20376;-79
2020/12/01 01:49:40;;;;;;;19.07;13.40;;;5.20;99.90;;;;;;5019303;28;20174;-79
2020/12/01 01:52:28;;;;;;;21.57;14.63;;;5.10;99.90;;;;;;5018901;28;20184;-79
2020/12/01 01:55:16;;;;;;;22.57;14.23;;;5.20;99.90;;;;;;5019312;28;20689;-79
2020/12/01 01:57:43;;;;;;;20.30;13.80;;;5.20;99.90;;;;;;5038107;28;20649;-79
2020/12/01 02:00:18;;;;;;;20.40;14.20;;;5.20;99.90;;;;;;5018613;28;20178;-80
2020/12/01 02:02:43;;;;;;;20.97;14.87;;;5.20;99.90;;;;;;5020788;28;20184;-80
2020/12/01 02:05:09;;;;;;;22.97;14.67;;;5.20;99.90;;;;;;5034882;28;20594;-79
2020/12/01 02:07:34;;;;;;;23.03;15.13;;;5.20;99.90;;;;;;5035087;28;20613;-80
2020/12/01 02:10:00;;;;;;;22.90;15.50;;;5.20;99.90;;;;;;5018486;28;20185;-79
2020/12/01 02:12:25;;;;;;;23.43;15.50;;;5.20;99.90;;;;;;5035099;28;20177;-79
2020/12/01 02:15:03;;;;;;;27.63;17.53;;;5.20;99.90;;;;;;5018505;28;20271;-79
2020/12/01 02:17:31;;;;;;;26.27;16.47;;;5.20;99.90;;;;;;5019365;28;20696;-80
2020/12/01 02:20:18;;;;;;;22.87;16.47;;;5.20;99.90;;;;;;5035225;28;20170;-79
2020/12/01 02:22:45;;;;;;;23.53;16.07;;;5.20;99.90;;;;;;5035334;28;20159;-79
2020/12/01 02:25:11;;;;;;;24.83;16.00;;;5.20;99.90;;;;;;5018476;28;20201;-79
2020/12/01 02:27:36;;;;;;;25.13;16.87;;;5.20;99.90;;;;;;5018360;28;20185;-80
2020/12/01 02:30:02;;;;;;;27.73;18.83;;;5.20;99.90;;;;;;5034678;28;20192;-79
2020/12/01 02:32:28;;;;;;;31.40;19.17;;;5.20;99.90;;;;;;5018388;28;20223;-79
2020/12/01 02:35:00;;;;;;;27.90;18.80;;;5.20;99.90;;;;;;5037558;28;20205;-80
2020/12/01 02:37:27;;;;;;;33.03;20.67;;;5.20;99.90;;;;;;5039250;28;20724;-79
2020/12/01 02:39:53;;;;;;;33.47;20.33;;;5.30;99.90;;;;;;5039252;28;20174;-79
2020/12/01 02:42:23;;;;;;;35.07;21.27;;;5.30;99.90;;;;;;5038947;28;20170;-79
2020/12/01 02:44:52;;;;;;;32.33;19.57;;;5.20;99.90;;;;;;5022681;28;20224;-79
2020/12/01 02:47:18;;;;;;;32.97;21.23;;;5.30;99.90;;;;;;5022527;28;20174;-79
2020/12/01 02:49:43;;;;;;;41.23;22.40;;;5.30;99.90;;;;;;5039185;28;20185;-80
2020/12/01 02:52:09;;;;;;;37.20;22.67;;;5.30;99.90;;;;;;5022442;28;20174;-79
2020/12/01 02:54:34;;;;;;;39.00;22.90;;;5.30;99.90;;;;;;5022480;28;20197;-79
2020/12/01 02:57:00;;;;;;;34.00;20.73;;;5.30;99.90;;;;;;5038449;28;20195;-80
2020/12/01 02:59:26;;;;;;;32.80;21.43;;;5.30;99.90;;;;;;5038301;28;20202;-79
2020/12/01 03:01:51;;;;;;;36.63;22.30;;;5.40;99.90;;;;;;5021778;28;20174;-79
2020/12/01 03:04:17;;;;;;;33.80;21.83;;;5.40;99.90;;;;;;5021758;28;20213;-79
2020/12/01 03:06:42;;;;;;;40.27;22.17;;;5.40;99.90;;;;;;5022165;28;20181;-80
2020/12/01 03:09:09;;;;;;;36.63;22.57;;;5.40;99.90;;;;;;5038731;28;20185;-79
2020/12/01 03:11:35;;;;;;;35.53;23.13;;;5.40;99.90;;;;;;5022272;28;20218;-79
2020/12/01 03:14:00;;;;;;;42.03;22.73;;;5.40;99.90;;;;;;5038034;28;20204;-79
2020/12/01 03:16:26;;;;;;;39.07;22.00;;;5.40;99.90;;;;;;5021472;28;20576;-79
2020/12/01 03:18:51;;;;;;;45.67;24.23;;;5.40;99.90;;;;;;5021232;28;20309;-79
2020/12/01 03:21:17;;;;;;;45.20;24.93;;;5.40;99.90;;;;;;5038170;28;20268;-79
2020/12/01 03:23:43;;;;;;;40.83;24.30;;;5.40;99.90;;;;;;5037908;28;20281;-80
2020/12/01 03:26:10;;;;;;;43.03;24.10;;;5.40;99.90;;;;;;5021289;28;20702;-80
2020/12/01 03:28:35;;;;;;;38.13;22.30;;;5.40;99.90;;;;;;5021474;28;20190;-80
2020/12/01 03:31:01;;;;;;;39.50;23.50;;;5.40;99.90;;;;;;5037665;28;20244;-79
2020/12/01 03:33:26;;;;;;;38.77;23.67;;;5.40;99.90;;;;;;5037679;28;20611;-79
2020/12/01 03:35:52;;;;;;;40.87;21.77;;;5.40;99.90;;;;;;5021297;28;20711;-80
2020/12/01 03:38:17;;;;;;;40.57;23.03;;;5.40;99.90;;;;;;5037294;28;20218;-79
2020/12/01 03:40:43;;;;;;;39.63;22.03;;;5.40;99.90;;;;;;5021051;28;20181;-79
2020/12/01 03:43:09;;;;;;;39.80;21.70;;;5.40;99.90;;;;;;5070682;28;20182;-79
2020/12/01 03:45:34;;;;;;;34.73;21.30;;;5.40;99.90;;;;;;5053009;28;20688;-79
2020/12/01 03:48:00;;;;;;;32.30;20.40;;;5.50;99.90;;;;;;5053725;28;20219;-79
2020/12/01 03:50:26;;;;;;;32.50;20.43;;;5.50;99.90;;;;;;5070688;28;20209;-79
2020/12/01 03:52:52;;;;;;;35.30;22.20;;;5.50;99.90;;;;;;5053752;28;20186;-79
2020/12/01 03:55:18;;;;;;;29.90;19.93;;;5.50;99.90;;;;;;5053608;28;20292;-79
2020/12/01 03:57:43;;;;;;;33.67;19.67;;;5.50;99.90;;;;;;5053518;28;20228;-79
2020/12/01 04:00:15;;;;;;;32.77;20.53;;;5.40;99.90;;;;;;5053242;28;20232;-79
2020/12/01 04:02:40;;;;;;;31.87;18.90;;;5.40;99.90;;;;;;5053408;28;20178;-79
2020/12/01 04:05:06;;;;;;;32.13;21.70;;;5.40;99.90;;;;;;5053349;28;20222;-79
2020/12/01 04:07:32;;;;;;;33.20;19.60;;;5.40;99.90;;;;;;5053462;28;20178;-79
2020/12/01 04:09:57;;;;;;;28.13;19.30;;;5.40;99.90;;;;;;5053561;28;20621;-79
2020/12/01 04:12:24;;;;;;;29.63;18.77;;;5.40;99.90;;;;;;5053726;28;20185;-79
2020/12/01 04:14:50;;;;;;;29.00;18.90;;;5.30;99.90;;;;;;5070201;28;20235;-79
2020/12/01 04:17:15;;;;;;;31.00;18.67;;;5.30;99.90;;;;;;5053195;28;20217;-79
2020/12/01 04:19:42;;;;;;;31.80;20.03;;;5.30;99.90;;;;;;5070379;28;20629;-79
2020/12/01 04:22:07;;;;;;;32.63;20.33;;;5.40;99.90;;;;;;5070139;28;20170;-79
2020/12/01 04:24:33;;;;;;;30.03;20.97;;;5.30;99.90;;;;;;5069982;28;20220;-79
2020/12/01 04:26:58;;;;;;;34.70;22.07;;;5.50;99.90;;;;;;5053017;28;20296;-79
2020/12/01 04:29:24;;;;;;;30.03;20.47;;;5.60;99.90;;;;;;5070074;28;20265;-79
2020/12/01 04:31:49;;;;;;;33.57;20.57;;;5.60;99.90;;;;;;5069908;28;20193;-79
2020/12/01 04:34:15;;;;;;;28.97;20.27;;;5.50;99.90;;;;;;5069828;28;20194;-79
2020/12/01 04:36:40;;;;;;;31.43;21.13;;;5.50;99.90;;;;;;5053118;28;20629;-79
2020/12/01 04:39:06;;;;;;;33.37;22.93;;;5.60;99.90;;;;;;5052788;28;20764;-79
2020/12/01 04:41:31;;;;;;;31.17;21.60;;;5.60;99.90;;;;;;5053236;28;20276;-79
2020/12/01 04:43:57;;;;;;;31.30;21.67;;;5.60;99.90;;;;;;5052879;28;20281;-79
2020/12/01 04:46:24;;;;;;;29.83;21.53;;;5.70;99.90;;;;;;5052794;28;20209;-79
2020/12/01 04:48:58;;;;;;;31.50;21.23;;;5.70;99.90;;;;;;5052725;28;20557;-79
2020/12/01 04:51:58;;;;;;;32.17;21.43;;;5.70;99.90;;;;;;5052205;28;20186;-79
2020/12/01 04:54:52;;;;;;;31.97;21.93;;;5.70;99.90;;;;;;5053861;28;20740;-79
2020/12/01 04:57:55;;;;;;;31.90;20.87;;;5.70;99.90;;;;;;5081218;28;20163;-79
2020/12/01 05:00:45;;;;;;;35.70;21.87;;;5.70;99.90;;;;;;5052451;28;20227;-79
2020/12/01 05:03:22;;;;;;;32.10;21.27;;;5.70;99.90;;;;;;5081208;28;20166;-79
2020/12/01 05:06:40;;;;;;;30.80;21.30;;;5.60;99.90;;;;;;5069133;28;20197;-79
2020/12/01 05:09:12;;;;;;;27.70;19.73;;;5.70;99.90;;;;;;5038232;28;20186;-79
2020/12/01 05:11:56;;;;;;;33.23;21.10;;;5.70;99.90;;;;;;5068803;28;20154;-79
2020/12/01 05:14:35;;;;;;;30.57;20.63;;;5.70;99.90;;;;;;5051891;28;20329;-79
2020/12/01 05:17:07;;;;;;;30.37;20.13;;;5.70;99.90;;;;;;5068851;28;20170;-79
2020/12/01 05:19:40;;;;;;;36.07;21.37;;;5.70;99.90;;;;;;5052059;28;20213;-79
2020/12/01 05:22:05;;;;;;;32.17;20.80;;;5.80;99.90;;;;;;5068830;28;20180;-79
2020/12/01 05:24:45;;;;;;;31.50;21.17;;;5.80;99.90;;;;;;5051996;28;20201;-79
2020/12/01 05:27:23;;;;;;;30.00;20.17;;;5.80;99.90;;;;;;5068248;28;20186;-79
2020/12/01 05:29:53;;;;;;;30.47;20.87;;;5.70;99.90;;;;;;5052150;28;20313;-79
2020/12/01 05:32:30;;;;;;;31.27;20.40;;;5.70;99.90;;;;;;5051925;28;20665;-80
2020/12/01 05:35:06;;;;;;;26.90;19.73;;;5.70;99.90;;;;;;5051743;28;20190;-79
2020/12/01 05:37:32;;;;;;;31.93;20.60;;;5.70;99.90;;;;;;5068615;28;20296;-79
2020/12/01 05:39:57;;;;;;;30.37;20.40;;;5.80;99.90;;;;;;5068624;28;20273;-79
2020/12/01 05:42:23;;;;;;;30.97;19.40;;;5.80;99.90;;;;;;5051659;28;20269;-79
2020/12/01 05:45:03;;;;;;;33.53;19.97;;;5.80;99.90;;;;;;5031723;28;20198;-79
2020/12/01 05:47:38;;;;;;;30.93;19.70;;;5.80;99.90;;;;;;5027312;28;20181;-79
2020/12/01 05:50:06;;;;;;;31.20;19.03;;;5.80;99.90;;;;;;5036298;28;20532;-79
2020/12/01 05:52:52;;;;;;;34.87;20.83;;;5.80;99.90;;;;;;5051983;28;20179;-79
2020/12/01 05:55:18;;;;;;;31.97;20.07;;;5.70;99.90;;;;;;5035122;28;20201;-79
2020/12/01 05:57:54;;;;;;;31.37;19.90;;;5.80;99.90;;;;;;5051709;28;20214;-80
2020/12/01 06:00:23;;;;;;;29.33;18.97;;;5.80;99.90;;;;;;5051750;28;20170;-79
2020/12/01 06:02:51;;;;;;;31.63;19.07;;;5.80;99.90;;;;;;5051458;28;20549;-79
2020/12/01 06:05:19;;;;;;;27.63;18.20;;;5.80;99.90;;;;;;5068083;23;20700;-79
2020/12/01 06:07:47;;;;;;;31.13;20.07;;;5.80;99.90;;;;;;5034131;28;20704;-78
2020/12/01 06:10:33;;;;;;;31.77;19.00;;;5.80;99.90;;;;;;5033895;28;20212;-78
2020/12/01 06:13:30;;;;;;;26.70;18.10;;;5.80;99.90;;;;;;5029324;28;20269;-78
2020/12/01 06:16:15;;;;;;;29.73;17.97;;;5.80;99.90;;;;;;5014472;28;20207;-79
2020/12/01 06:18:47;;;;;;;27.93;17.50;;;5.80;99.90;;;;;;5011802;28;20242;-74
2020/12/01 06:21:13;;;;;;;30.87;18.43;;;5.80;99.90;;;;;;4999712;28;20286;-75
2020/12/01 06:23:44;;;;;;;31.23;19.70;;;5.80;99.90;;;;;;4995312;28;20222;-77
2020/12/01 06:26:29;;;;;;;27.80;18.10;;;5.90;99.90;;;;;;4994063;28;20220;-76
2020/12/01 06:29:09;;;;;;;29.27;18.80;;;5.90;99.90;;;;;;5001728;28;20186;-74
2020/12/01 06:31:56;;;;;;;30.77;19.33;;;5.80;99.90;;;;;;5017775;28;20183;-74
2020/12/01 06:34:47;;;;;;;32.90;19.00;;;5.80;99.90;;;;;;5017060;28;20175;-76
2020/12/01 06:37:22;;;;;;;32.63;19.90;;;5.80;99.90;;;;;;5000416;28;20662;-84
2020/12/01 06:39:55;;;;;;;31.50;17.63;;;5.90;99.90;;;;;;4992759;28;20671;-84
2020/12/01 06:42:42;;;;;;;32.43;18.40;;;5.80;99.90;;;;;;4984609;28;20563;-80
2020/12/01 06:45:21;;;;;;;32.10;19.27;;;5.90;99.90;;;;;;4996239;28;20214;-74
2020/12/01 06:47:46;;;;;;;34.00;19.37;;;5.90;99.90;;;;;;4977692;28;20176;-74
2020/12/01 06:50:15;;;;;;;32.47;20.00;;;5.80;99.90;;;;;;5003065;28;20274;-77
2020/12/01 06:52:41;;;;;;;30.57;18.60;;;5.80;99.90;;;;;;5003047;28;20171;-75
2020/12/01 06:55:06;;;;;;;30.33;17.93;;;5.80;99.90;;;;;;5004704;28;20201;-75
2020/12/01 06:57:34;;;;;;;31.93;19.53;;;5.70;99.90;;;;;;4986744;28;20175;-75
2020/12/01 07:00:00;;;;;;;33.77;19.30;;;5.70;99.90;;;;;;4987838;28;20769;-75
2020/12/01 07:02:31;;;;;;;35.40;19.13;;;5.80;99.90;;;;;;4975472;28;20187;-77
2020/12/01 07:05:08;;;;;;;34.97;19.30;;;5.90;99.90;;;;;;4991482;28;20583;-76
2020/12/01 07:07:35;;;;;;;35.00;20.07;;;5.90;99.90;;;;;;5007062;28;20270;-73
2020/12/01 07:10:01;;;;;;;31.87;19.10;;;5.90;99.90;;;;;;5013926;28;20178;-75
2020/12/01 07:13:02;;;;;;;33.93;19.60;;;5.90;99.90;;;;;;5013758;28;20595;-76
2020/12/01 07:15:35;;;;;;;38.17;20.53;;;5.90;99.90;;;;;;4934850;29;20206;-78
2020/12/01 07:18:09;;;;;;;37.83;21.17;;;5.90;99.90;;;;;;4991605;28;20598;-76
2020/12/01 07:21:01;;;;;;;41.60;21.70;;;5.90;99.90;;;;;;5007356;28;20164;-78
2020/12/01 07:23:34;;;;;;;38.20;22.43;;;6.00;99.90;;;;;;4995227;28;20190;-77
2020/12/01 07:26:18;;;;;;;39.97;22.03;;;5.90;99.90;;;;;;4981467;28;20199;-76
2020/12/01 07:28:49;;;;;;;50.70;22.63;;;6.00;99.90;;;;;;5029708;28;20181;-78
2020/12/01 07:31:26;;;;;;;40.37;21.90;;;5.90;99.90;;;;;;5035040;28;20265;-77
2020/12/01 07:34:04;;;;;;;37.20;21.33;;;6.00;99.90;;;;;;5007128;28;20186;-77
2020/12/01 07:36:40;;;;;;;39.70;22.23;;;5.90;99.90;;;;;;4998763;28;20198;-78
2020/12/01 07:39:18;;;;;;;37.20;21.00;;;5.90;99.90;;;;;;5016013;28;20198;-80
2020/12/01 07:41:52;;;;;;;36.73;21.60;;;6.00;99.90;;;;;;5016116;28;20649;-77
2020/12/01 07:44:22;;;;;;;38.23;22.47;;;5.90;99.90;;;;;;5014176;28;20171;-78
2020/12/01 07:47:05;;;;;;;43.60;22.50;;;5.90;99.90;;;;;;5000441;28;20650;-78
2020/12/01 07:49:30;;;;;;;43.87;22.53;;;5.90;99.90;;;;;;4999696;28;20179;-77
2020/12/01 07:52:14;;;;;;;40.00;21.83;;;6.00;99.90;;;;;;5000135;28;20241;-75
2020/12/01 07:54:41;;;;;;;39.13;22.50;;;6.00;99.90;;;;;;5034182;28;20190;-77
2020/12/01 07:57:11;;;;;;;39.37;21.93;;;6.00;99.90;;;;;;4974363;28;20191;-79
2020/12/01 07:59:41;;;;;;;40.33;22.33;;;6.00;99.90;;;;;;5029898;28;20202;-77
2020/12/01 08:02:06;;;;;;;36.87;22.03;;;6.00;99.90;;;;;;4997052;28;20180;-77
2020/12/01 08:04:32;;;;;;;40.73;21.90;;;6.10;99.90;;;;;;4980243;28;20188;-79
2020/12/01 08:07:04;;;;;;;42.87;22.10;;;6.10;99.90;;;;;;4980553;28;20281;-77
2020/12/01 08:09:30;;;;;;;40.67;23.17;;;6.20;99.90;;;;;;4997302;28;20660;-77
2020/12/01 08:11:58;;;;;;;43.80;22.43;;;6.20;99.90;;;;;;5001267;28;20189;-77
2020/12/01 08:14:24;;;;;;;38.80;21.37;;;6.20;99.90;;;;;;5006458;28;20187;-76
2020/12/01 08:17:03;;;;;;;42.63;22.77;;;6.20;99.90;;;;;;4996090;28;20269;-75
2020/12/01 08:19:29;;;;;;;39.43;21.47;;;6.20;99.90;;;;;;4983393;28;20203;-76
2020/12/01 08:21:55;;;;;;;40.50;21.83;;;6.20;99.90;;;;;;4993687;28;20186;-78
2020/12/01 08:24:21;;;;;;;34.83;20.23;;;6.20;99.90;;;;;;5011850;28;20179;-77
2020/12/01 08:26:47;;;;;;;36.70;20.73;;;6.20;99.90;;;;;;5008126;28;20187;-76
2020/12/01 08:29:18;;;;;;;37.97;20.33;;;6.30;99.90;;;;;;5010067;28;20229;-76
2020/12/01 08:31:56;;;;;;;40.17;21.87;;;6.30;99.90;;;;;;5000081;28;20603;-76
2020/12/01 08:34:49;;;;;;;40.83;20.57;;;6.30;99.90;;;;;;5015301;28;20336;-76
2020/12/01 08:37:22;;;;;;;43.97;19.57;;;6.20;99.90;;;;;;5004455;28;20570;-75
2020/12/01 08:39:58;;;;;;;36.50;19.73;;;6.30;99.90;;;;;;5017933;28;20182;-76
2020/12/01 08:43:01;;;;;;;34.93;19.57;;;6.40;99.90;;;;;;5022383;28;20177;-76
2020/12/01 08:46:06;;;;;;;34.50;20.13;;;6.30;99.90;;;;;;5017010;28;20198;-78
2020/12/01 08:48:38;;;;;;;36.80;18.77;;;6.40;99.90;;;;;;5014134;28;20186;-77
2020/12/01 08:51:18;;;;;;;32.97;19.10;;;6.40;99.90;;;;;;5016591;28;20182;-76
2020/12/01 08:53:47;;;;;;;35.47;18.57;;;6.50;99.90;;;;;;5033122;28;20199;-76
2020/12/01 08:56:18;;;;;;;34.57;19.00;;;6.50;99.90;;;;;;5033752;28;20289;-77
2020/12/01 08:58:45;;;;;;;32.10;18.33;;;6.60;99.90;;;;;;5035260;28;20259;-79
2020/12/01 09:01:12;;;;;;;30.93;17.90;;;6.60;99.90;;;;;;5035266;28;20174;-76
2020/12/01 09:03:39;;;;;;;33.20;17.93;;;6.70;99.90;;;;;;5009263;28;20178;-77
2020/12/01 09:06:06;;;;;;;30.80;17.20;;;6.80;99.90;;;;;;5015279;28;20207;-77
2020/12/01 09:08:42;;;;;;;28.40;16.77;;;6.80;99.90;;;;;;4982547;28;20284;-78
2020/12/01 09:16:51;;;;;;;28.00;16.23;;;6.80;99.90;;;;;;5031354;28;20205;-76
2020/12/01 09:19:48;;;;;;;24.93;15.40;;;6.90;99.90;;;;;;5036291;28;20193;-76
2020/12/01 09:22:12;;;;;;;29.97;16.37;;;6.90;99.90;;;;;;5037730;28;20244;-77
2020/12/01 09:24:37;;;;;;;22.37;14.27;;;6.90;99.90;;;;;;5018162;28;20199;-76
2020/12/01 09:27:07;;;;;;;25.30;14.27;;;7.00;99.90;;;;;;5034975;28;20177;-76
2020/12/01 09:29:33;;;;;;;28.97;15.17;;;7.10;99.90;;;;;;5023052;28;20240;-77
2020/12/01 09:31:58;;;;;;;26.30;13.87;;;7.10;99.90;;;;;;4998942;28;20640;-79
2020/12/01 09:34:24;;;;;;;24.40;13.70;;;7.10;99.90;;;;;;4998622;28;20183;-75
2020/12/01 09:36:56;;;;;;;22.70;13.33;;;7.20;99.90;;;;;;4981968;28;20182;-76
2020/12/01 09:39:21;;;;;;;21.53;13.30;;;7.10;99.90;;;;;;4995720;28;20222;-76
2020/12/01 09:41:55;;;;;;;21.30;13.00;;;7.20;99.90;;;;;;5012995;28;20651;-76
2020/12/01 09:46:59;;;;;;;22.70;12.83;;;7.10;99.90;;;;;;5015022;28;20227;-76
2020/12/01 09:49:25;;;;;;;21.93;12.60;;;7.20;99.90;;;;;;4999067;28;20184;-76
2020/12/01 09:52:07;;;;;;;19.87;12.30;;;7.30;99.90;;;;;;4975726;28;20631;-78
2020/12/01 09:54:48;;;;;;;19.70;11.53;;;7.40;99.90;;;;;;5016017;28;20167;-75
2020/12/01 09:57:41;;;;;;;18.37;11.03;;;7.40;99.90;;;;;;5014466;28;20186;-78
2020/12/01 10:00:40;;;;;;;18.10;10.43;;;7.50;99.90;;;;;;4989387;28;20190;-79
2020/12/01 10:04:21;;;;;;;16.00;10.43;;;7.50;99.90;;;;;;5017733;28;20261;-79
2020/12/01 10:08:43;;;;;;;15.50;9.80;;;7.40;99.90;;;;;;5007889;28;20262;-78
2020/12/01 10:11:40;;;;;;;13.60;8.90;;;7.40;99.90;;;;;;4997436;28;20192;-76
2020/12/01 10:20:10;;;;;;;16.77;8.43;;;7.40;99.90;;;;;;4984123;28;20226;-78
2020/12/01 10:36:20;;;;;;;11.97;8.03;;;7.30;99.90;;;;;;5007343;28;20208;-79
2020/12/01 10:38:46;;;;;;;10.67;7.37;;;7.30;99.90;;;;;;4982679;28;20213;-79
2020/12/01 10:41:11;;;;;;;9.43;6.90;;;7.30;99.90;;;;;;4982494;28;20171;-80
2020/12/01 10:43:37;;;;;;;11.63;7.17;;;7.30;99.90;;;;;;4999203;28;20254;-78
2020/12/01 10:46:02;;;;;;;11.10;7.67;;;7.20;99.90;;;;;;4983887;28;20204;-82
2020/12/01 10:48:28;;;;;;;13.33;8.60;;;7.30;99.90;;;;;;4987434;28;20194;-79
2020/12/01 10:50:53;;;;;;;11.67;8.10;;;7.20;99.90;;;;;;4984712;28;20261;-79
2020/12/01 10:53:19;;;;;;;12.70;7.30;;;7.20;99.90;;;;;;5000240;28;20341;-80
2020/12/01 10:55:44;;;;;;;11.30;7.33;;;7.20;99.90;;;;;;4986133;28;20194;-79
2020/12/01 10:58:10;;;;;;;9.87;7.17;;;7.20;99.90;;;;;;5018354;28;20207;-78
2020/12/01 11:00:35;;;;;;;10.17;7.10;;;7.30;99.90;;;;;;4992280;28;20173;-78
2020/12/01 11:03:01;;;;;;;9.10;7.00;;;7.30;99.90;;;;;;5013230;28;20212;-78
2020/12/01 11:05:29;;;;;;;9.23;6.83;;;7.40;99.90;;;;;;5021235;28;20239;-77
2020/12/01 11:07:55;;;;;;;10.93;7.20;;;7.30;99.90;;;;;;5020850;28;20238;-77
2020/12/01 11:10:20;;;;;;;12.43;7.67;;;7.30;99.90;;;;;;5008935;28;20590;-76
2020/12/01 11:12:46;;;;;;;10.53;7.50;;;7.40;99.90;;;;;;5017582;28;20213;-78
2020/12/01 11:15:11;;;;;;;9.53;6.87;;;7.40;99.90;;;;;;5018250;28;20210;-76
2020/12/01 11:17:37;;;;;;;12.27;7.73;;;7.40;99.90;;;;;;4984267;28;20171;-76
2020/12/01 11:20:04;;;;;;;9.57;7.37;;;7.40;99.90;;;;;;5027189;28;20182;-75
2020/12/01 11:22:30;;;;;;;10.50;7.20;;;7.50;99.90;;;;;;5023333;28;20178;-75
2020/12/01 11:24:55;;;;;;;11.33;7.70;;;7.60;99.90;;;;;;5026636;28;20198;-75
2020/12/01 11:27:21;;;;;;;10.63;7.40;;;7.70;99.90;;;;;;5018424;28;20172;-76
2020/12/01 11:29:46;;;;;;;10.20;7.70;;;7.80;99.90;;;;;;5001173;28;20215;-75
2020/12/01 11:32:12;;;;;;;11.60;7.83;;;7.80;99.90;;;;;;4995853;28;20190;-75
2020/12/01 11:34:37;;;;;;;9.67;7.77;;;7.80;99.90;;;;;;4996114;28;20201;-75
2020/12/01 11:37:03;;;;;;;29.03;17.77;;;7.80;99.90;;;;;;5005987;28;20237;-75
2020/12/01 11:39:28;;;;;;;23.80;12.67;;;7.80;99.90;;;;;;5000253;28;20274;-75
2020/12/01 11:41:54;;;;;;;13.87;9.07;;;7.70;99.90;;;;;;5017099;28;20544;-75
2020/12/01 11:44:19;;;;;;;10.03;7.67;;;7.80;99.90;;;;;;4993801;28;20171;-75
2020/12/01 11:46:45;;;;;;;9.50;7.13;;;7.70;99.90;;;;;;5015676;28;20666;-75
2020/12/01 11:49:11;;;;;;;10.80;7.40;;;7.80;99.90;;;;;;5002455;28;20232;-74
2020/12/01 11:51:37;;;;;;;9.70;7.20;;;7.70;99.90;;;;;;4999547;28;20175;-76
2020/12/01 11:54:04;;;;;;;10.30;6.33;;;7.80;99.90;;;;;;4999968;28;20186;-76
2020/12/01 11:56:29;;;;;;;9.03;6.80;;;7.80;99.90;;;;;;5034389;28;20237;-76
2020/12/01 11:58:55;;;;;;;7.37;6.03;;;7.80;99.90;;;;;;5001033;28;20220;-75
2020/12/01 12:01:20;;;;;;;7.07;5.80;;;7.90;99.90;;;;;;5017061;28;20212;-73
2020/12/01 12:03:46;;;;;;;7.60;6.17;;;7.80;99.90;;;;;;4997407;28;20207;-75
2020/12/01 12:06:12;;;;;;;9.33;6.57;;;7.70;99.90;;;;;;4996785;28;20215;-77
2020/12/01 12:08:37;;;;;;;9.17;6.83;;;7.80;99.90;;;;;;4997154;28;20229;-75
2020/12/01 12:11:03;;;;;;;9.00;6.97;;;7.80;99.90;;;;;;4996957;28;20199;-73
2020/12/01 12:13:29;;;;;;;9.63;7.77;;;7.90;99.90;;;;;;4999377;28;20183;-75
2020/12/01 12:15:55;;;;;;;10.03;7.47;;;7.80;99.90;;;;;;4975498;28;20212;-79
2020/12/01 12:18:20;;;;;;;7.70;5.80;;;7.80;99.90;;;;;;4983359;28;20222;-74
2020/12/01 12:20:46;;;;;;;6.57;5.67;;;7.90;99.90;;;;;;5025454;28;20639;-74
2020/12/01 12:23:11;;;;;;;6.13;5.33;;;7.90;99.90;;;;;;4982042;28;20190;-75
2020/12/01 12:25:37;;;;;;;8.30;6.00;;;7.90;99.90;;;;;;4980610;28;20203;-74
2020/12/01 12:28:03;;;;;;;8.60;7.17;;;7.90;99.90;;;;;;4980421;28;20260;-74
2020/12/01 12:30:28;;;;;;;10.50;7.07;;;8.00;99.90;;;;;;4980746;28;20186;-73
2020/12/01 12:32:54;;;;;;;9.23;6.70;;;8.00;99.90;;;;;;4996980;28;20184;-75
2020/12/01 12:35:19;;;;;;;8.07;6.50;;;8.00;99.90;;;;;;4980524;28;20199;-74
2020/12/01 12:37:45;;;;;;;8.60;6.03;;;8.00;99.90;;;;;;4979952;28;20187;-74
2020/12/01 12:40:10;;;;;;;7.10;5.87;;;8.00;99.90;;;;;;4980500;28;20178;-74
2020/12/01 12:42:36;;;;;;;8.83;7.00;;;8.00;99.90;;;;;;4996322;28;20548;-74
2020/12/01 12:45:01;;;;;;;11.43;8.17;;;8.00;99.90;;;;;;4980295;28;20223;-75
2020/12/01 12:47:27;;;;;;;12.17;7.43;;;8.20;99.90;;;;;;4980705;28;20600;-75
2020/12/01 12:49:52;;;;;;;7.47;6.50;;;8.30;99.90;;;;;;4980008;28;20557;-77
2020/12/01 12:52:18;;;;;;;8.30;6.47;;;8.20;99.90;;;;;;4964137;28;20644;-76
2020/12/01 12:54:43;;;;;;;7.10;6.30;;;8.10;99.90;;;;;;4971298;28;20286;-78
2020/12/01 12:57:09;;;;;;;8.87;6.67;;;8.10;99.90;;;;;;4983387;28;20187;-75
2020/12/01 12:59:35;;;;;;;10.77;6.97;;;8.00;99.90;;;;;;4982758;28;20218;-78
2020/12/01 13:02:00;;;;;;;9.60;7.57;;;8.00;99.90;;;;;;4986646;28;20684;-78
2020/12/01 13:04:26;;;;;;;10.43;7.43;;;8.00;99.90;;;;;;4979755;28;20185;-75
2020/12/01 13:06:51;;;;;;;9.43;7.30;;;8.10;99.90;;;;;;5013461;28;20537;-75
2020/12/01 13:09:17;;;;;;;9.73;7.63;;;8.00;99.90;;;;;;5006879;28;20689;-75
2020/12/01 13:11:42;;;;;;;7.97;6.93;;;8.00;99.90;;;;;;5015439;28;20191;-75
2020/12/01 13:14:08;;;;;;;9.30;6.73;;;8.10;99.90;;;;;;5015056;28;20187;-77
2020/12/01 13:16:34;;;;;;;13.10;9.97;;;8.00;99.90;;;;;;5000945;28;20202;-75
2020/12/01 13:18:59;;;;;;;20.43;17.40;;;8.00;99.90;;;;;;5014637;28;20686;-77
2020/12/01 13:21:25;;;;;;;12.93;8.87;;;8.10;99.90;;;;;;4999331;28;20174;-77
2020/12/01 13:23:50;;;;;;;9.00;7.63;;;8.20;99.90;;;;;;5017590;28;20178;-76
2020/12/01 13:26:19;;;;;;;10.17;7.83;;;8.20;99.90;;;;;;5020788;28;20197;-76